Terminal Aerodrome Forecast
Issued by NWS

Home | Current Version | Previous Version | Text Only | Print | Product List | Glossary On
Versions: 1 2 3 4 5 6 7 8 9 10 11 12 13
000
FTUS42 KMLB 200541
TAFSFB
TAF
KSFB 200541Z 2006/2106 07003KT P6SM SKC
     FM201400 05005KT P6SM FEW035 SCT100
     FM201700 07010KT P6SM SCT040 SCT100
     FM210200 07004KT P6SM SCT100=

USA.gov is the U.S. government's official web portal to all federal, state and local government web resources and services.